sensor_id;sensor_type;location;lat;lon;timestamp;P1;durP1;ratioP1;P2;durP2;ratioP2
54853;SDS011;40747;49.480;8.658;2023-05-14T00:02:12;2.60;;;1.70;;
54853;SDS011;40747;49.480;8.658;2023-05-14T00:04:37;3.47;;;2.53;;
54853;SDS011;40747;49.480;8.658;2023-05-14T00:07:02;2.63;;;1.83;;
54853;SDS011;40747;49.480;8.658;2023-05-14T00:09:28;2.20;;;1.52;;
54853;SDS011;40747;49.480;8.658;2023-05-14T00:11:54;2.17;;;1.70;;
54853;SDS011;40747;49.480;8.658;2023-05-14T00:14:20;3.92;;;1.65;;
54853;SDS011;40747;49.480;8.658;2023-05-14T00:16:45;4.38;;;1.80;;
54853;SDS011;40747;49.480;8.658;2023-05-14T00:19:11;1.98;;;1.50;;
54853;SDS011;40747;49.480;8.658;2023-05-14T00:21:36;7.90;;;2.00;;
54853;SDS011;40747;49.480;8.658;2023-05-14T00:24:01;2.33;;;1.67;;
54853;SDS011;40747;49.480;8.658;2023-05-14T00:26:27;3.40;;;2.00;;
54853;SDS011;40747;49.480;8.658;2023-05-14T00:28:52;4.25;;;1.83;;
54853;SDS011;40747;49.480;8.658;2023-05-14T00:31:17;2.60;;;1.55;;
54853;SDS011;40747;49.480;8.658;2023-05-14T00:33:43;1.63;;;0.98;;
54853;SDS011;40747;49.480;8.658;2023-05-14T00:36:08;2.20;;;1.77;;
54853;SDS011;40747;49.480;8.658;2023-05-14T00:38:34;2.80;;;2.13;;
54853;SDS011;40747;49.480;8.658;2023-05-14T00:40:59;1.90;;;1.45;;
54853;SDS011;40747;49.480;8.658;2023-05-14T00:43:24;5.03;;;2.60;;
54853;SDS011;40747;49.480;8.658;2023-05-14T00:45:50;3.25;;;1.98;;
54853;SDS011;40747;49.480;8.658;2023-05-14T00:48:17;3.78;;;1.45;;
54853;SDS011;40747;49.480;8.658;2023-05-14T00:50:44;2.03;;;1.45;;
54853;SDS011;40747;49.480;8.658;2023-05-14T00:53:09;2.55;;;2.28;;
54853;SDS011;40747;49.480;8.658;2023-05-14T00:55:36;1.80;;;1.70;;
54853;SDS011;40747;49.480;8.658;2023-05-14T00:58:03;2.13;;;1.92;;
54853;SDS011;40747;49.480;8.658;2023-05-14T01:00:33;2.10;;;1.90;;
54853;SDS011;40747;49.480;8.658;2023-05-14T01:02:58;2.90;;;2.03;;
54853;SDS011;40747;49.480;8.658;2023-05-14T01:05:26;2.33;;;2.03;;
54853;SDS011;40747;49.480;8.658;2023-05-14T01:10:28;2.83;;;1.80;;
54853;SDS011;40747;49.480;8.658;2023-05-14T01:15:58;2.58;;;1.75;;
54853;SDS011;40747;49.480;8.658;2023-05-14T01:18:24;2.72;;;1.63;;
54853;SDS011;40747;49.480;8.658;2023-05-14T01:20:52;1.83;;;1.50;;
54853;SDS011;40747;49.480;8.658;2023-05-14T01:23:18;2.53;;;1.75;;
54853;SDS011;40747;49.480;8.658;2023-05-14T01:25:43;3.25;;;1.98;;
54853;SDS011;40747;49.480;8.658;2023-05-14T01:30:47;1.95;;;1.52;;
54853;SDS011;40747;49.480;8.658;2023-05-14T01:33:17;3.40;;;2.20;;
54853;SDS011;40747;49.480;8.658;2023-05-14T01:35:45;2.90;;;1.85;;
54853;SDS011;40747;49.480;8.658;2023-05-14T01:38:11;2.83;;;2.13;;
54853;SDS011;40747;49.480;8.658;2023-05-14T01:40:38;3.13;;;1.85;;
54853;SDS011;40747;49.480;8.658;2023-05-14T01:43:05;3.53;;;2.33;;
54853;SDS011;40747;49.480;8.658;2023-05-14T01:45:30;2.88;;;2.13;;
54853;SDS011;40747;49.480;8.658;2023-05-14T01:47:56;3.13;;;2.17;;
54853;SDS011;40747;49.480;8.658;2023-05-14T01:50:21;3.38;;;1.85;;
54853;SDS011;40747;49.480;8.658;2023-05-14T01:52:47;2.60;;;1.98;;
54853;SDS011;40747;49.480;8.658;2023-05-14T01:55:13;4.68;;;2.30;;
54853;SDS011;40747;49.480;8.658;2023-05-14T01:57:39;2.70;;;1.95;;
54853;SDS011;40747;49.480;8.658;2023-05-14T02:00:04;1.85;;;1.58;;
54853;SDS011;40747;49.480;8.658;2023-05-14T02:02:30;2.70;;;1.73;;
54853;SDS011;40747;49.480;8.658;2023-05-14T02:04:55;3.00;;;2.17;;
54853;SDS011;40747;49.480;8.658;2023-05-14T02:07:20;3.55;;;2.30;;
54853;SDS011;40747;49.480;8.658;2023-05-14T02:09:46;3.10;;;1.77;;
54853;SDS011;40747;49.480;8.658;2023-05-14T02:12:11;3.58;;;1.80;;
54853;SDS011;40747;49.480;8.658;2023-05-14T02:14:36;3.40;;;1.65;;
54853;SDS011;40747;49.480;8.658;2023-05-14T02:17:02;3.45;;;2.70;;
54853;SDS011;40747;49.480;8.658;2023-05-14T02:19:28;3.03;;;1.77;;
54853;SDS011;40747;49.480;8.658;2023-05-14T02:21:54;2.38;;;1.90;;
54853;SDS011;40747;49.480;8.658;2023-05-14T02:24:19;3.10;;;1.88;;
54853;SDS011;40747;49.480;8.658;2023-05-14T02:26:44;4.13;;;1.90;;
54853;SDS011;40747;49.480;8.658;2023-05-14T02:29:10;2.75;;;1.92;;
54853;SDS011;40747;49.480;8.658;2023-05-14T02:31:35;2.75;;;2.15;;
54853;SDS011;40747;49.480;8.658;2023-05-14T02:34:01;4.05;;;2.10;;
54853;SDS011;40747;49.480;8.658;2023-05-14T02:36:28;3.28;;;2.08;;
54853;SDS011;40747;49.480;8.658;2023-05-14T02:38:53;3.58;;;2.10;;
54853;SDS011;40747;49.480;8.658;2023-05-14T02:41:18;1.90;;;1.65;;
54853;SDS011;40747;49.480;8.658;2023-05-14T02:43:44;3.25;;;2.20;;
54853;SDS011;40747;49.480;8.658;2023-05-14T02:46:10;4.88;;;2.30;;
54853;SDS011;40747;49.480;8.658;2023-05-14T02:48:35;2.92;;;2.08;;
54853;SDS011;40747;49.480;8.658;2023-05-14T02:51:00;2.78;;;2.40;;
54853;SDS011;40747;49.480;8.658;2023-05-14T02:53:26;2.60;;;1.92;;
54853;SDS011;40747;49.480;8.658;2023-05-14T02:55:51;2.78;;;2.05;;
54853;SDS011;40747;49.480;8.658;2023-05-14T02:58:16;2.97;;;2.08;;
54853;SDS011;40747;49.480;8.658;2023-05-14T03:00:43;3.17;;;2.45;;
54853;SDS011;40747;49.480;8.658;2023-05-14T03:03:08;3.58;;;2.17;;
54853;SDS011;40747;49.480;8.658;2023-05-14T03:05:33;2.47;;;1.98;;
54853;SDS011;40747;49.480;8.658;2023-05-14T03:07:59;4.72;;;2.33;;
54853;SDS011;40747;49.480;8.658;2023-05-14T03:10:24;2.53;;;1.90;;
54853;SDS011;40747;49.480;8.658;2023-05-14T03:12:50;3.35;;;2.47;;
54853;SDS011;40747;49.480;8.658;2023-05-14T03:15:15;2.28;;;1.88;;
54853;SDS011;40747;49.480;8.658;2023-05-14T03:17:41;3.45;;;2.33;;
54853;SDS011;40747;49.480;8.658;2023-05-14T03:20:06;2.85;;;2.25;;
54853;SDS011;40747;49.480;8.658;2023-05-14T03:22:32;3.40;;;1.60;;
54853;SDS011;40747;49.480;8.658;2023-05-14T03:24:57;3.78;;;2.28;;
54853;SDS011;40747;49.480;8.658;2023-05-14T03:27:22;3.42;;;2.45;;
54853;SDS011;40747;49.480;8.658;2023-05-14T03:29:48;2.95;;;2.40;;
54853;SDS011;40747;49.480;8.658;2023-05-14T03:32:13;3.53;;;2.38;;
54853;SDS011;40747;49.480;8.658;2023-05-14T03:34:38;3.83;;;2.08;;
54853;SDS011;40747;49.480;8.658;2023-05-14T03:37:04;3.58;;;1.92;;
54853;SDS011;40747;49.480;8.658;2023-05-14T03:39:29;3.60;;;2.55;;
54853;SDS011;40747;49.480;8.658;2023-05-14T03:41:55;3.05;;;2.25;;
54853;SDS011;40747;49.480;8.658;2023-05-14T03:44:22;3.45;;;2.20;;
54853;SDS011;40747;49.480;8.658;2023-05-14T03:46:48;3.17;;;2.20;;
54853;SDS011;40747;49.480;8.658;2023-05-14T03:49:13;3.47;;;2.47;;
54853;SDS011;40747;49.480;8.658;2023-05-14T03:51:38;6.10;;;2.55;;
54853;SDS011;40747;49.480;8.658;2023-05-14T03:54:05;2.13;;;1.58;;
54853;SDS011;40747;49.480;8.658;2023-05-14T03:56:31;2.90;;;2.38;;
54853;SDS011;40747;49.480;8.658;2023-05-14T03:58:56;4.07;;;2.38;;
54853;SDS011;40747;49.480;8.658;2023-05-14T04:01:21;2.72;;;1.63;;
54853;SDS011;40747;49.480;8.658;2023-05-14T04:03:46;2.67;;;2.28;;
54853;SDS011;40747;49.480;8.658;2023-05-14T04:06:12;7.57;;;2.60;;
54853;SDS011;40747;49.480;8.658;2023-05-14T04:08:37;6.50;;;2.40;;
54853;SDS011;40747;49.480;8.658;2023-05-14T04:11:02;4.78;;;2.85;;
54853;SDS011;40747;49.480;8.658;2023-05-14T04:13:28;4.13;;;2.42;;
54853;SDS011;40747;49.480;8.658;2023-05-14T04:15:53;4.07;;;2.22;;
54853;SDS011;40747;49.480;8.658;2023-05-14T04:18:18;4.43;;;2.55;;
54853;SDS011;40747;49.480;8.658;2023-05-14T04:20:43;4.47;;;2.47;;
54853;SDS011;40747;49.480;8.658;2023-05-14T04:23:09;2.88;;;2.55;;
54853;SDS011;40747;49.480;8.658;2023-05-14T04:25:34;7.63;;;2.97;;
54853;SDS011;40747;49.480;8.658;2023-05-14T04:27:59;3.45;;;2.28;;
54853;SDS011;40747;49.480;8.658;2023-05-14T04:30:25;4.13;;;2.25;;
54853;SDS011;40747;49.480;8.658;2023-05-14T04:32:50;4.30;;;2.47;;
54853;SDS011;40747;49.480;8.658;2023-05-14T04:35:15;3.38;;;2.70;;
54853;SDS011;40747;49.480;8.658;2023-05-14T04:37:41;5.72;;;2.90;;
54853;SDS011;40747;49.480;8.658;2023-05-14T04:40:07;3.15;;;2.10;;
54853;SDS011;40747;49.480;8.658;2023-05-14T04:42:35;3.65;;;2.33;;
54853;SDS011;40747;49.480;8.658;2023-05-14T04:45:00;4.40;;;2.38;;
54853;SDS011;40747;49.480;8.658;2023-05-14T04:47:25;5.63;;;3.13;;
54853;SDS011;40747;49.480;8.658;2023-05-14T04:49:51;4.63;;;2.22;;
54853;SDS011;40747;49.480;8.658;2023-05-14T04:52:16;3.35;;;2.10;;
54853;SDS011;40747;49.480;8.658;2023-05-14T04:54:41;3.00;;;2.05;;
54853;SDS011;40747;49.480;8.658;2023-05-14T04:57:07;2.85;;;2.40;;
54853;SDS011;40747;49.480;8.658;2023-05-14T04:59:32;4.18;;;2.38;;
54853;SDS011;40747;49.480;8.658;2023-05-14T05:01:57;5.30;;;3.17;;
54853;SDS011;40747;49.480;8.658;2023-05-14T05:04:23;3.97;;;2.58;;
54853;SDS011;40747;49.480;8.658;2023-05-14T05:06:48;2.95;;;2.22;;
54853;SDS011;40747;49.480;8.658;2023-05-14T05:09:15;3.10;;;1.83;;
54853;SDS011;40747;49.480;8.658;2023-05-14T05:11:44;6.85;;;2.95;;
54853;SDS011;40747;49.480;8.658;2023-05-14T05:14:09;4.25;;;3.13;;
54853;SDS011;40747;49.480;8.658;2023-05-14T05:16:34;6.63;;;3.83;;
54853;SDS011;40747;49.480;8.658;2023-05-14T05:19:00;4.90;;;4.22;;
54853;SDS011;40747;49.480;8.658;2023-05-14T05:21:25;7.07;;;3.85;;
54853;SDS011;40747;49.480;8.658;2023-05-14T05:23:50;6.85;;;3.75;;
54853;SDS011;40747;49.480;8.658;2023-05-14T05:26:16;5.47;;;3.67;;
54853;SDS011;40747;49.480;8.658;2023-05-14T05:28:41;4.18;;;2.83;;
54853;SDS011;40747;49.480;8.658;2023-05-14T05:31:06;5.60;;;3.50;;
54853;SDS011;40747;49.480;8.658;2023-05-14T05:33:32;4.53;;;3.47;;
54853;SDS011;40747;49.480;8.658;2023-05-14T05:35:58;7.25;;;3.92;;
54853;SDS011;40747;49.480;8.658;2023-05-14T05:38:24;5.22;;;3.72;;
54853;SDS011;40747;49.480;8.658;2023-05-14T05:40:49;4.85;;;3.38;;
54853;SDS011;40747;49.480;8.658;2023-05-14T05:43:15;7.57;;;4.00;;
54853;SDS011;40747;49.480;8.658;2023-05-14T05:45:40;6.00;;;3.80;;
54853;SDS011;40747;49.480;8.658;2023-05-14T05:48:06;5.05;;;3.13;;
54853;SDS011;40747;49.480;8.658;2023-05-14T05:50:31;3.95;;;3.40;;
54853;SDS011;40747;49.480;8.658;2023-05-14T05:52:56;4.78;;;3.67;;
54853;SDS011;40747;49.480;8.658;2023-05-14T05:55:25;4.57;;;3.28;;
54853;SDS011;40747;49.480;8.658;2023-05-14T05:57:50;4.15;;;3.05;;
54853;SDS011;40747;49.480;8.658;2023-05-14T06:00:16;7.18;;;3.30;;
54853;SDS011;40747;49.480;8.658;2023-05-14T06:02:42;5.03;;;3.92;;
54853;SDS011;40747;49.480;8.658;2023-05-14T06:05:08;5.38;;;3.28;;
54853;SDS011;40747;49.480;8.658;2023-05-14T06:07:34;5.60;;;4.00;;
54853;SDS011;40747;49.480;8.658;2023-05-14T06:09:59;6.20;;;3.85;;
54853;SDS011;40747;49.480;8.658;2023-05-14T06:12:24;6.82;;;3.67;;
54853;SDS011;40747;49.480;8.658;2023-05-14T06:14:50;4.22;;;3.33;;
54853;SDS011;40747;49.480;8.658;2023-05-14T06:17:15;5.38;;;3.85;;
54853;SDS011;40747;49.480;8.658;2023-05-14T06:19:40;4.45;;;3.08;;
54853;SDS011;40747;49.480;8.658;2023-05-14T06:22:06;5.60;;;3.67;;
54853;SDS011;40747;49.480;8.658;2023-05-14T06:24:31;6.28;;;4.15;;
54853;SDS011;40747;49.480;8.658;2023-05-14T06:26:56;4.93;;;3.55;;
54853;SDS011;40747;49.480;8.658;2023-05-14T06:29:22;5.35;;;3.70;;
54853;SDS011;40747;49.480;8.658;2023-05-14T06:31:47;6.20;;;3.30;;
54853;SDS011;40747;49.480;8.658;2023-05-14T06:34:13;12.02;;;4.22;;
54853;SDS011;40747;49.480;8.658;2023-05-14T06:36:38;4.95;;;3.58;;
54853;SDS011;40747;49.480;8.658;2023-05-14T06:39:04;3.70;;;2.85;;
54853;SDS011;40747;49.480;8.658;2023-05-14T06:41:30;4.38;;;3.13;;
54853;SDS011;40747;49.480;8.658;2023-05-14T06:43:55;6.55;;;3.60;;
54853;SDS011;40747;49.480;8.658;2023-05-14T06:46:20;5.07;;;3.42;;
54853;SDS011;40747;49.480;8.658;2023-05-14T06:48:46;6.15;;;2.47;;
54853;SDS011;40747;49.480;8.658;2023-05-14T06:51:11;4.63;;;3.63;;
54853;SDS011;40747;49.480;8.658;2023-05-14T06:53:37;4.88;;;3.58;;
54853;SDS011;40747;49.480;8.658;2023-05-14T06:56:03;4.13;;;2.92;;
54853;SDS011;40747;49.480;8.658;2023-05-14T06:58:28;6.05;;;3.97;;
54853;SDS011;40747;49.480;8.658;2023-05-14T07:00:54;4.97;;;3.35;;
54853;SDS011;40747;49.480;8.658;2023-05-14T07:03:19;4.70;;;3.28;;
54853;SDS011;40747;49.480;8.658;2023-05-14T07:05:46;4.65;;;3.67;;
54853;SDS011;40747;49.480;8.658;2023-05-14T07:08:11;4.88;;;2.65;;
54853;SDS011;40747;49.480;8.658;2023-05-14T07:10:36;5.15;;;3.78;;
54853;SDS011;40747;49.480;8.658;2023-05-14T07:13:03;4.38;;;3.10;;
54853;SDS011;40747;49.480;8.658;2023-05-14T07:15:28;5.60;;;3.72;;
54853;SDS011;40747;49.480;8.658;2023-05-14T07:17:54;5.07;;;3.35;;
54853;SDS011;40747;49.480;8.658;2023-05-14T07:20:19;3.60;;;2.70;;
54853;SDS011;40747;49.480;8.658;2023-05-14T07:22:44;5.72;;;3.17;;
54853;SDS011;40747;49.480;8.658;2023-05-14T07:25:10;4.45;;;3.17;;
54853;SDS011;40747;49.480;8.658;2023-05-14T07:27:35;5.30;;;3.10;;
54853;SDS011;40747;49.480;8.658;2023-05-14T07:30:00;4.35;;;2.55;;
54853;SDS011;40747;49.480;8.658;2023-05-14T07:32:26;4.22;;;2.95;;
54853;SDS011;40747;49.480;8.658;2023-05-14T07:34:51;3.45;;;2.22;;
54853;SDS011;40747;49.480;8.658;2023-05-14T07:37:16;4.55;;;2.15;;
54853;SDS011;40747;49.480;8.658;2023-05-14T07:39:42;5.20;;;3.00;;
54853;SDS011;40747;49.480;8.658;2023-05-14T07:42:07;4.82;;;2.80;;
54853;SDS011;40747;49.480;8.658;2023-05-14T07:44:33;5.78;;;2.60;;
54853;SDS011;40747;49.480;8.658;2023-05-14T07:46:58;2.67;;;2.08;;
54853;SDS011;40747;49.480;8.658;2023-05-14T07:49:23;7.18;;;2.95;;
54853;SDS011;40747;49.480;8.658;2023-05-14T07:51:49;3.97;;;2.60;;
54853;SDS011;40747;49.480;8.658;2023-05-14T07:54:14;3.28;;;2.55;;
54853;SDS011;40747;49.480;8.658;2023-05-14T07:56:39;2.88;;;2.28;;
54853;SDS011;40747;49.480;8.658;2023-05-14T07:59:05;3.08;;;2.60;;
54853;SDS011;40747;49.480;8.658;2023-05-14T08:01:31;3.20;;;2.50;;
54853;SDS011;40747;49.480;8.658;2023-05-14T08:03:56;2.90;;;2.30;;
54853;SDS011;40747;49.480;8.658;2023-05-14T08:06:23;4.63;;;3.15;;
54853;SDS011;40747;49.480;8.658;2023-05-14T08:08:51;3.90;;;2.45;;
54853;SDS011;40747;49.480;8.658;2023-05-14T08:11:16;4.47;;;2.25;;
54853;SDS011;40747;49.480;8.658;2023-05-14T08:13:42;3.72;;;2.38;;
54853;SDS011;40747;49.480;8.658;2023-05-14T08:16:07;4.32;;;2.63;;
54853;SDS011;40747;49.480;8.658;2023-05-14T08:18:33;3.55;;;2.80;;
54853;SDS011;40747;49.480;8.658;2023-05-14T08:20:58;3.35;;;2.67;;
54853;SDS011;40747;49.480;8.658;2023-05-14T08:23:24;4.85;;;3.08;;
54853;SDS011;40747;49.480;8.658;2023-05-14T08:25:50;5.55;;;2.40;;
54853;SDS011;40747;49.480;8.658;2023-05-14T08:28:16;4.97;;;2.88;;
54853;SDS011;40747;49.480;8.658;2023-05-14T08:30:41;3.97;;;2.40;;
54853;SDS011;40747;49.480;8.658;2023-05-14T08:33:06;4.57;;;2.97;;
54853;SDS011;40747;49.480;8.658;2023-05-14T08:35:32;4.30;;;3.17;;
54853;SDS011;40747;49.480;8.658;2023-05-14T08:37:57;6.35;;;2.78;;
54853;SDS011;40747;49.480;8.658;2023-05-14T08:40:22;3.58;;;2.63;;
54853;SDS011;40747;49.480;8.658;2023-05-14T08:42:54;3.95;;;2.60;;
54853;SDS011;40747;49.480;8.658;2023-05-14T08:45:23;4.10;;;2.65;;
54853;SDS011;40747;49.480;8.658;2023-05-14T08:47:52;5.38;;;3.53;;
54853;SDS011;40747;49.480;8.658;2023-05-14T08:50:20;3.67;;;2.83;;
54853;SDS011;40747;49.480;8.658;2023-05-14T08:52:46;4.20;;;2.30;;
54853;SDS011;40747;49.480;8.658;2023-05-14T08:55:12;4.93;;;2.65;;
54853;SDS011;40747;49.480;8.658;2023-05-14T08:57:38;4.70;;;2.70;;
54853;SDS011;40747;49.480;8.658;2023-05-14T09:00:04;3.88;;;2.53;;
54853;SDS011;40747;49.480;8.658;2023-05-14T09:02:35;4.10;;;3.08;;
54853;SDS011;40747;49.480;8.658;2023-05-14T09:05:03;4.38;;;2.55;;
54853;SDS011;40747;49.480;8.658;2023-05-14T09:07:28;3.88;;;2.60;;
54853;SDS011;40747;49.480;8.658;2023-05-14T09:09:54;7.50;;;3.20;;
54853;SDS011;40747;49.480;8.658;2023-05-14T09:12:20;4.03;;;2.50;;
54853;SDS011;40747;49.480;8.658;2023-05-14T09:14:46;2.90;;;2.15;;
54853;SDS011;40747;49.480;8.658;2023-05-14T09:17:12;3.22;;;2.25;;
54853;SDS011;40747;49.480;8.658;2023-05-14T09:19:39;3.47;;;2.50;;
54853;SDS011;40747;49.480;8.658;2023-05-14T09:22:07;4.57;;;2.90;;
54853;SDS011;40747;49.480;8.658;2023-05-14T09:24:34;3.40;;;2.20;;
54853;SDS011;40747;49.480;8.658;2023-05-14T09:27:00;5.40;;;2.35;;
54853;SDS011;40747;49.480;8.658;2023-05-14T09:29:26;4.63;;;3.08;;
54853;SDS011;40747;49.480;8.658;2023-05-14T09:31:53;4.05;;;2.30;;
54853;SDS011;40747;49.480;8.658;2023-05-14T09:36:49;3.92;;;2.63;;
54853;SDS011;40747;49.480;8.658;2023-05-14T09:39:14;5.65;;;3.25;;
54853;SDS011;40747;49.480;8.658;2023-05-14T09:41:41;5.15;;;3.05;;
54853;SDS011;40747;49.480;8.658;2023-05-14T09:44:06;5.82;;;2.88;;
54853;SDS011;40747;49.480;8.658;2023-05-14T09:46:32;4.25;;;2.40;;
54853;SDS011;40747;49.480;8.658;2023-05-14T09:48:57;3.20;;;2.65;;
54853;SDS011;40747;49.480;8.658;2023-05-14T09:51:23;4.32;;;2.33;;
54853;SDS011;40747;49.480;8.658;2023-05-14T09:53:49;3.97;;;2.40;;
54853;SDS011;40747;49.480;8.658;2023-05-14T09:56:17;4.88;;;2.40;;
54853;SDS011;40747;49.480;8.658;2023-05-14T09:58:42;4.35;;;2.17;;
54853;SDS011;40747;49.480;8.658;2023-05-14T10:01:07;3.65;;;2.22;;
54853;SDS011;40747;49.480;8.658;2023-05-14T10:03:33;3.72;;;2.42;;
54853;SDS011;40747;49.480;8.658;2023-05-14T10:06:01;4.18;;;2.42;;
54853;SDS011;40747;49.480;8.658;2023-05-14T10:08:31;2.50;;;2.00;;
54853;SDS011;40747;49.480;8.658;2023-05-14T10:10:58;3.67;;;2.63;;
54853;SDS011;40747;49.480;8.658;2023-05-14T10:13:29;3.40;;;2.65;;
54853;SDS011;40747;49.480;8.658;2023-05-14T10:16:07;2.35;;;1.67;;
54853;SDS011;40747;49.480;8.658;2023-05-14T10:18:41;3.83;;;2.40;;
54853;SDS011;40747;49.480;8.658;2023-05-14T10:21:10;3.65;;;1.88;;
54853;SDS011;40747;49.480;8.658;2023-05-14T10:23:38;2.85;;;1.92;;
54853;SDS011;40747;49.480;8.658;2023-05-14T10:26:04;2.35;;;1.95;;
54853;SDS011;40747;49.480;8.658;2023-05-14T10:28:30;2.35;;;2.03;;
54853;SDS011;40747;49.480;8.658;2023-05-14T10:30:56;3.50;;;2.50;;
54853;SDS011;40747;49.480;8.658;2023-05-14T10:33:24;5.53;;;2.90;;
54853;SDS011;40747;49.480;8.658;2023-05-14T10:35:56;5.43;;;3.13;;
54853;SDS011;40747;49.480;8.658;2023-05-14T10:38:25;3.33;;;2.20;;
54853;SDS011;40747;49.480;8.658;2023-05-14T10:40:55;5.40;;;2.47;;
54853;SDS011;40747;49.480;8.658;2023-05-14T10:43:23;3.50;;;2.45;;
54853;SDS011;40747;49.480;8.658;2023-05-14T10:45:52;4.80;;;3.25;;
54853;SDS011;40747;49.480;8.658;2023-05-14T10:48:18;4.07;;;3.10;;
54853;SDS011;40747;49.480;8.658;2023-05-14T10:50:43;3.33;;;2.40;;
54853;SDS011;40747;49.480;8.658;2023-05-14T10:53:11;3.30;;;2.67;;
54853;SDS011;40747;49.480;8.658;2023-05-14T10:55:37;3.60;;;2.38;;
54853;SDS011;40747;49.480;8.658;2023-05-14T10:58:03;3.90;;;3.13;;
54853;SDS011;40747;49.480;8.658;2023-05-14T11:00:29;3.58;;;2.22;;
54853;SDS011;40747;49.480;8.658;2023-05-14T11:02:58;4.85;;;3.03;;
54853;SDS011;40747;49.480;8.658;2023-05-14T11:05:24;3.75;;;2.53;;
54853;SDS011;40747;49.480;8.658;2023-05-14T11:07:51;3.45;;;2.33;;
54853;SDS011;40747;49.480;8.658;2023-05-14T11:10:21;5.28;;;2.40;;
54853;SDS011;40747;49.480;8.658;2023-05-14T11:12:56;4.30;;;2.00;;
54853;SDS011;40747;49.480;8.658;2023-05-14T11:15:23;3.45;;;2.25;;
54853;SDS011;40747;49.480;8.658;2023-05-14T11:17:53;2.75;;;1.80;;
54853;SDS011;40747;49.480;8.658;2023-05-14T11:20:18;4.13;;;2.45;;
54853;SDS011;40747;49.480;8.658;2023-05-14T11:22:45;2.55;;;2.05;;
54853;SDS011;40747;49.480;8.658;2023-05-14T11:25:12;2.78;;;2.15;;
54853;SDS011;40747;49.480;8.658;2023-05-14T11:27:38;4.60;;;2.38;;
54853;SDS011;40747;49.480;8.658;2023-05-14T11:30:10;5.63;;;2.78;;
54853;SDS011;40747;49.480;8.658;2023-05-14T11:32:37;3.83;;;2.88;;
54853;SDS011;40747;49.480;8.658;2023-05-14T11:35:02;3.35;;;2.33;;
54853;SDS011;40747;49.480;8.658;2023-05-14T11:37:28;3.03;;;2.15;;
54853;SDS011;40747;49.480;8.658;2023-05-14T11:39:54;3.42;;;2.38;;
54853;SDS011;40747;49.480;8.658;2023-05-14T11:42:22;3.10;;;2.45;;
54853;SDS011;40747;49.480;8.658;2023-05-14T11:44:50;3.45;;;2.30;;
54853;SDS011;40747;49.480;8.658;2023-05-14T11:47:16;5.13;;;2.67;;
54853;SDS011;40747;49.480;8.658;2023-05-14T11:49:43;2.75;;;2.20;;
54853;SDS011;40747;49.480;8.658;2023-05-14T11:52:10;3.70;;;2.90;;
54853;SDS011;40747;49.480;8.658;2023-05-14T11:54:38;2.90;;;2.33;;
54853;SDS011;40747;49.480;8.658;2023-05-14T11:57:07;3.05;;;2.20;;
54853;SDS011;40747;49.480;8.658;2023-05-14T11:59:34;4.53;;;2.33;;
54853;SDS011;40747;49.480;8.658;2023-05-14T12:02:00;2.55;;;2.08;;
54853;SDS011;40747;49.480;8.658;2023-05-14T12:04:27;3.10;;;2.00;;
54853;SDS011;40747;49.480;8.658;2023-05-14T12:06:53;2.53;;;2.03;;
54853;SDS011;40747;49.480;8.658;2023-05-14T12:09:19;4.13;;;2.40;;
54853;SDS011;40747;49.480;8.658;2023-05-14T12:11:45;3.22;;;2.40;;
54853;SDS011;40747;49.480;8.658;2023-05-14T12:14:18;4.88;;;2.67;;
54853;SDS011;40747;49.480;8.658;2023-05-14T12:16:45;4.15;;;2.25;;
54853;SDS011;40747;49.480;8.658;2023-05-14T12:19:14;2.63;;;1.95;;
54853;SDS011;40747;49.480;8.658;2023-05-14T12:21:42;3.35;;;2.33;;
54853;SDS011;40747;49.480;8.658;2023-05-14T12:24:08;3.45;;;2.20;;
54853;SDS011;40747;49.480;8.658;2023-05-14T12:26:36;5.68;;;2.88;;
54853;SDS011;40747;49.480;8.658;2023-05-14T12:29:02;6.10;;;2.80;;
54853;SDS011;40747;49.480;8.658;2023-05-14T12:31:32;2.80;;;2.50;;
54853;SDS011;40747;49.480;8.658;2023-05-14T12:33:58;3.45;;;2.58;;
54853;SDS011;40747;49.480;8.658;2023-05-14T12:36:24;2.97;;;2.38;;
54853;SDS011;40747;49.480;8.658;2023-05-14T12:38:49;2.38;;;2.03;;
54853;SDS011;40747;49.480;8.658;2023-05-14T12:41:20;3.30;;;2.80;;
54853;SDS011;40747;49.480;8.658;2023-05-14T12:43:46;3.08;;;2.30;;
54853;SDS011;40747;49.480;8.658;2023-05-14T12:46:13;4.38;;;2.78;;
54853;SDS011;40747;49.480;8.658;2023-05-14T12:48:38;3.33;;;2.33;;
54853;SDS011;40747;49.480;8.658;2023-05-14T12:51:04;3.08;;;2.22;;
54853;SDS011;40747;49.480;8.658;2023-05-14T12:53:30;3.63;;;2.05;;
54853;SDS011;40747;49.480;8.658;2023-05-14T12:55:55;3.65;;;2.40;;
54853;SDS011;40747;49.480;8.658;2023-05-14T12:58:21;3.53;;;2.00;;
54853;SDS011;40747;49.480;8.658;2023-05-14T13:00:46;5.68;;;3.15;;
54853;SDS011;40747;49.480;8.658;2023-05-14T13:03:12;3.88;;;2.65;;
54853;SDS011;40747;49.480;8.658;2023-05-14T13:05:37;3.55;;;2.38;;
54853;SDS011;40747;49.480;8.658;2023-05-14T13:08:02;3.25;;;2.05;;
54853;SDS011;40747;49.480;8.658;2023-05-14T13:10:28;2.92;;;2.40;;
54853;SDS011;40747;49.480;8.658;2023-05-14T13:12:54;2.20;;;1.98;;
54853;SDS011;40747;49.480;8.658;2023-05-14T13:15:20;3.80;;;2.42;;
54853;SDS011;40747;49.480;8.658;2023-05-14T13:17:46;3.88;;;2.67;;
54853;SDS011;40747;49.480;8.658;2023-05-14T13:20:12;4.97;;;3.28;;
54853;SDS011;40747;49.480;8.658;2023-05-14T13:22:37;8.73;;;2.42;;
54853;SDS011;40747;49.480;8.658;2023-05-14T13:25:03;5.53;;;2.95;;
54853;SDS011;40747;49.480;8.658;2023-05-14T13:27:28;3.38;;;2.35;;
54853;SDS011;40747;49.480;8.658;2023-05-14T13:29:54;6.50;;;2.78;;
54853;SDS011;40747;49.480;8.658;2023-05-14T13:32:20;4.38;;;2.70;;
54853;SDS011;40747;49.480;8.658;2023-05-14T13:34:46;4.70;;;2.63;;
54853;SDS011;40747;49.480;8.658;2023-05-14T13:37:11;2.90;;;1.88;;
54853;SDS011;40747;49.480;8.658;2023-05-14T13:39:37;3.92;;;2.50;;
54853;SDS011;40747;49.480;8.658;2023-05-14T13:42:03;4.97;;;3.15;;
54853;SDS011;40747;49.480;8.658;2023-05-14T13:44:28;3.72;;;2.40;;
54853;SDS011;40747;49.480;8.658;2023-05-14T13:46:54;3.72;;;2.60;;
54853;SDS011;40747;49.480;8.658;2023-05-14T13:49:19;2.95;;;1.95;;
54853;SDS011;40747;49.480;8.658;2023-05-14T13:51:45;3.05;;;1.70;;
54853;SDS011;40747;49.480;8.658;2023-05-14T13:54:10;3.47;;;2.20;;
54853;SDS011;40747;49.480;8.658;2023-05-14T13:56:35;3.30;;;2.33;;
54853;SDS011;40747;49.480;8.658;2023-05-14T13:59:01;2.85;;;2.20;;
54853;SDS011;40747;49.480;8.658;2023-05-14T14:01:30;3.38;;;2.33;;
54853;SDS011;40747;49.480;8.658;2023-05-14T14:03:55;3.47;;;2.20;;
54853;SDS011;40747;49.480;8.658;2023-05-14T14:06:21;3.75;;;2.00;;
54853;SDS011;40747;49.480;8.658;2023-05-14T14:08:46;3.92;;;2.10;;
54853;SDS011;40747;49.480;8.658;2023-05-14T14:11:12;2.65;;;1.90;;
54853;SDS011;40747;49.480;8.658;2023-05-14T14:13:38;2.85;;;2.35;;
54853;SDS011;40747;49.480;8.658;2023-05-14T14:16:04;4.20;;;2.45;;
54853;SDS011;40747;49.480;8.658;2023-05-14T14:18:30;3.35;;;2.38;;
54853;SDS011;40747;49.480;8.658;2023-05-14T14:20:56;2.25;;;1.80;;
54853;SDS011;40747;49.480;8.658;2023-05-14T14:23:22;2.47;;;2.10;;
54853;SDS011;40747;49.480;8.658;2023-05-14T14:25:47;2.30;;;1.70;;
54853;SDS011;40747;49.480;8.658;2023-05-14T14:28:12;1.83;;;1.38;;
54853;SDS011;40747;49.480;8.658;2023-05-14T14:30:38;2.13;;;1.92;;
54853;SDS011;40747;49.480;8.658;2023-05-14T14:33:03;2.58;;;1.75;;
54853;SDS011;40747;49.480;8.658;2023-05-14T14:35:29;2.00;;;1.77;;
54853;SDS011;40747;49.480;8.658;2023-05-14T14:37:56;2.60;;;1.73;;
54853;SDS011;40747;49.480;8.658;2023-05-14T14:40:22;3.33;;;1.98;;
54853;SDS011;40747;49.480;8.658;2023-05-14T14:42:48;2.67;;;1.90;;
54853;SDS011;40747;49.480;8.658;2023-05-14T14:45:13;1.70;;;1.60;;
54853;SDS011;40747;49.480;8.658;2023-05-14T14:47:41;2.70;;;1.60;;
54853;SDS011;40747;49.480;8.658;2023-05-14T14:50:07;3.40;;;1.73;;
54853;SDS011;40747;49.480;8.658;2023-05-14T14:52:33;1.85;;;1.65;;